Time;durP1;ratioP1;P1;durP2;ratioP2;P2;SDS_P1;SDS_P2;PMS_P1;PMS_P2;Temp;Humidity;BMP_temperature;BMP_pressure;BME280_temperature;BME280_humidity;BME280_pressure;Samples;Min_cycle;Max_cycle;Signal;HPM_P1;HPM_P2
2022/06/11 00:01:37;;;;;;;4.50;4.10;;;18.00;94.40;;;;;;10392688;28;20205;-78
2022/06/11 00:06:42;;;;;;;5.13;4.47;;;17.90;94.60;;;;;;10403812;28;20246;-78
2022/06/11 00:11:46;;;;;;;4.17;3.87;;;17.90;95.20;;;;;;10409961;28;20229;-78
2022/06/11 00:16:49;;;;;;;4.53;4.00;;;17.80;95.70;;;;;;10410193;28;20317;-79
2022/06/11 00:21:54;;;;;;;8.83;3.90;;;17.80;96.40;;;;;;10406754;28;20236;-76
2022/06/11 00:26:58;;;;;;;4.30;4.00;;;17.70;95.80;;;;;;10405349;28;20207;-77
2022/06/11 00:32:02;;;;;;;3.80;3.50;;;17.60;95.30;;;;;;10413443;28;20218;-78
2022/06/11 00:37:05;;;;;;;4.73;4.13;;;17.60;95.20;;;;;;10421404;28;20277;-80
2022/06/11 00:42:14;;;;;;;3.40;3.20;;;17.50;94.90;;;;;;10430103;28;20666;-78
2022/06/11 00:47:19;;;;;;;3.90;3.60;;;17.50;95.40;;;;;;10416604;28;20221;-80
2022/06/11 00:52:28;;;;;;;4.17;3.87;;;17.50;95.00;;;;;;10415144;28;20317;-78
2022/06/11 00:57:34;;;;;;;4.13;3.80;;;17.40;95.10;;;;;;10402863;28;20750;-79
2022/06/11 01:02:38;;;;;;;5.30;3.93;;;17.40;95.10;;;;;;10413258;28;20651;-79
2022/06/11 01:07:57;;;;;;;3.80;3.50;;;17.40;95.60;;;;;;10416285;28;20713;-80
2022/06/11 01:13:11;;;;;;;3.50;3.30;;;17.30;95.10;;;;;;10414154;28;20202;-79
2022/06/11 01:18:27;;;;;;;5.37;3.70;;;17.30;95.20;;;;;;10413267;28;20252;-79
2022/06/11 01:24:02;;;;;;;4.03;3.57;;;17.30;95.40;;;;;;10422877;28;20194;-80
2022/06/11 01:29:27;;;;;;;4.53;3.77;;;17.30;95.60;;;;;;10418905;28;20268;-80
2022/06/11 01:34:38;;;;;;;4.03;3.63;;;17.20;95.30;;;;;;10416050;28;20221;-80
2022/06/11 01:39:47;;;;;;;3.50;3.20;;;17.20;96.20;;;;;;10410752;28;20218;-79
2022/06/11 01:45:03;;;;;;;4.70;4.20;;;17.20;95.10;;;;;;10414682;28;20201;-80
2022/06/11 01:50:08;;;;;;;4.00;3.70;;;17.10;95.60;;;;;;10414014;28;20275;-77
2022/06/11 01:55:18;;;;;;;3.67;3.47;;;17.10;96.00;;;;;;10405077;28;20255;-81
2022/06/11 02:00:24;;;;;;;4.17;3.87;;;17.00;95.40;;;;;;10408112;28;20198;-78
2022/06/11 02:05:37;;;;;;;3.40;3.17;;;17.00;95.90;;;;;;10400914;28;20682;-76
2022/06/11 02:10:48;;;;;;;3.37;3.17;;;17.00;96.10;;;;;;10410580;28;20221;-77
2022/06/11 02:15:57;;;;;;;4.10;3.70;;;17.00;95.20;;;;;;10411063;28;20234;-77
2022/06/11 02:21:02;;;;;;;4.03;3.73;;;16.90;95.90;;;;;;10400834;28;20199;-78
2022/06/11 02:26:10;;;;;;;4.23;3.83;;;16.90;96.10;;;;;;10413645;28;20221;-76
2022/06/11 02:31:18;;;;;;;3.57;3.37;;;16.90;96.50;;;;;;10398026;28;20232;-81
2022/06/11 02:36:23;;;;;;;3.77;3.40;;;16.90;96.80;;;;;;10388561;28;20228;-81
2022/06/11 02:41:28;;;;;;;3.90;3.70;;;16.90;96.20;;;;;;10411228;28;20202;-79
2022/06/11 02:46:44;;;;;;;3.80;3.60;;;16.90;96.60;;;;;;10399055;28;20232;-81
2022/06/11 02:51:48;;;;;;;4.50;3.67;;;16.90;96.00;;;;;;10414575;28;20713;-76
2022/06/11 02:56:52;;;;;;;3.63;3.33;;;16.80;96.40;;;;;;10405754;28;20701;-78
2022/06/11 03:01:56;;;;;;;3.97;3.60;;;16.80;96.50;;;;;;10407061;28;20198;-79
2022/06/11 03:06:58;;;;;;;3.50;3.30;;;16.80;96.70;;;;;;10402670;28;20309;-76
2022/06/11 03:12:02;;;;;;;3.53;3.23;;;16.70;96.50;;;;;;10405645;28;20229;-78
2022/06/11 03:17:06;;;;;;;3.53;3.33;;;16.70;96.30;;;;;;10404497;28;20272;-78
2022/06/11 03:22:08;;;;;;;3.50;3.30;;;16.70;96.00;;;;;;10406123;28;20714;-77
2022/06/11 03:27:11;;;;;;;4.03;3.23;;;16.70;96.30;;;;;;10408330;28;20275;-79
2022/06/11 03:32:15;;;;;;;3.53;3.23;;;16.60;96.60;;;;;;10409016;28;20336;-77
2022/06/11 03:37:18;;;;;;;3.50;3.20;;;16.60;96.60;;;;;;10399146;28;20218;-81
2022/06/11 03:42:20;;;;;;;3.50;3.30;;;16.60;96.60;;;;;;10400645;28;20198;-77
2022/06/11 03:47:24;;;;;;;4.23;3.47;;;16.60;96.20;;;;;;10404843;28;20747;-77
2022/06/11 03:52:27;;;;;;;4.07;3.70;;;16.50;96.10;;;;;;10399901;28;20727;-78
2022/06/11 03:57:29;;;;;;;3.67;3.37;;;16.50;96.10;;;;;;10408682;28;20244;-82
2022/06/11 04:02:33;;;;;;;3.83;3.60;;;16.50;96.80;;;;;;10410059;28;20204;-79
2022/06/11 04:07:35;;;;;;;4.13;3.93;;;16.50;96.80;;;;;;10391809;28;20218;-76
2022/06/11 04:12:37;;;;;;;3.67;3.00;;;16.50;96.20;;;;;;10393325;28;20555;-77
2022/06/11 04:17:41;;;;;;;5.27;3.30;;;16.50;95.80;;;;;;10407200;28;20283;-77
2022/06/11 04:22:44;;;;;;;4.20;3.90;;;16.60;97.20;;;;;;10408994;28;20225;-78
2022/06/11 04:27:46;;;;;;;4.97;4.03;;;16.60;96.80;;;;;;10409206;28;20222;-78
2022/06/11 04:32:50;;;;;;;4.70;4.40;;;16.60;96.60;;;;;;10402831;28;20221;-78
2022/06/11 04:37:52;;;;;;;4.40;4.10;;;16.60;96.70;;;;;;10403918;28;20226;-76
2022/06/11 04:42:54;;;;;;;4.07;3.77;;;16.60;96.60;;;;;;10405993;28;20285;-77
2022/06/11 04:47:58;;;;;;;4.70;4.23;;;16.70;97.20;;;;;;10408320;28;20248;-76
2022/06/11 04:53:00;;;;;;;4.63;4.33;;;16.70;97.70;;;;;;10408697;28;20301;-77
2022/06/11 04:58:02;;;;;;;3.73;3.43;;;16.70;97.00;;;;;;10396417;28;20255;-78
2022/06/11 05:03:06;;;;;;;4.00;3.70;;;16.80;97.60;;;;;;10405425;28;20202;-76
2022/06/11 05:08:09;;;;;;;4.30;3.90;;;16.80;97.40;;;;;;10389171;28;20233;-76
2022/06/11 05:13:12;;;;;;;4.00;3.70;;;16.90;97.50;;;;;;10407302;28;20232;-79
2022/06/11 05:18:16;;;;;;;3.50;3.30;;;16.90;97.20;;;;;;10405330;28;20308;-78
2022/06/11 05:23:19;;;;;;;4.17;3.87;;;17.00;97.20;;;;;;10406722;28;20241;-78
2022/06/11 05:28:24;;;;;;;3.93;3.63;;;17.00;97.10;;;;;;10409745;28;20264;-77
2022/06/11 05:33:29;;;;;;;4.07;3.77;;;17.10;97.30;;;;;;10406981;28;20198;-78
2022/06/11 05:38:33;;;;;;;4.33;3.93;;;17.20;97.40;;;;;;10412646;28;20229;-78
2022/06/11 05:43:35;;;;;;;3.80;3.60;;;17.20;97.70;;;;;;10399872;28;20201;-76
2022/06/11 05:48:43;;;;;;;3.90;3.70;;;17.30;97.90;;;;;;10410587;28;20264;-76
2022/06/11 05:53:45;;;;;;;3.60;3.37;;;17.40;97.60;;;;;;10412772;28;20225;-78
2022/06/11 05:58:51;;;;;;;3.53;3.33;;;17.50;97.70;;;;;;10412684;28;20206;-76
2022/06/11 06:03:55;;;;;;;4.17;3.90;;;17.60;97.30;;;;;;10413146;28;20204;-76
2022/06/11 06:08:57;;;;;;;3.37;3.07;;;17.70;97.70;;;;;;10406057;28;20218;-77
2022/06/11 06:13:59;;;;;;;3.53;3.33;;;17.80;97.10;;;;;;10402814;28;20267;-77
2022/06/11 06:19:03;;;;;;;4.47;4.00;;;17.90;96.50;;;;;;10413799;28;20256;-81
2022/06/11 06:24:07;;;;;;;4.40;4.10;;;18.00;96.90;;;;;;10415809;28;20583;-80
2022/06/11 06:29:10;;;;;;;3.60;3.40;;;18.10;96.50;;;;;;10414575;28;20568;-80
2022/06/11 06:34:13;;;;;;;4.57;4.00;;;18.30;96.70;;;;;;10408989;28;20411;-77
2022/06/11 06:39:15;;;;;;;4.37;3.17;;;18.40;96.20;;;;;;10397708;28;20237;-77
2022/06/11 06:44:17;;;;;;;4.60;3.60;;;18.60;95.90;;;;;;10405337;28;20210;-76
2022/06/11 06:49:21;;;;;;;3.60;3.40;;;18.80;96.00;;;;;;10408028;28;20243;-77
2022/06/11 06:54:23;;;;;;;4.63;4.23;;;19.10;95.30;;;;;;10410855;28;20198;-76
2022/06/11 06:59:25;;;;;;;3.50;3.30;;;19.40;94.70;;;;;;10398335;28;20228;-78
2022/06/11 07:04:28;;;;;;;3.40;3.10;;;19.70;94.00;;;;;;10399521;28;20252;-76
2022/06/11 07:09:30;;;;;;;3.70;3.40;;;19.90;94.20;;;;;;10406267;28;20229;-78
2022/06/11 07:14:32;;;;;;;3.00;2.80;;;20.20;94.20;;;;;;10398817;28;20701;-79
2022/06/11 07:19:42;;;;;;;2.80;2.63;;;20.50;93.30;;;;;;10410061;28;20317;-78
2022/06/11 07:24:44;;;;;;;4.07;3.30;;;20.80;93.50;;;;;;10405748;28;20730;-77
2022/06/11 07:29:49;;;;;;;3.10;2.90;;;21.20;91.30;;;;;;10405481;28;20218;-77
2022/06/11 07:34:52;;;;;;;6.30;3.37;;;21.50;91.70;;;;;;10398552;28;20237;-79
2022/06/11 07:39:54;;;;;;;3.53;3.10;;;21.90;91.80;;;;;;10408864;28;20528;-78
2022/06/11 07:44:56;;;;;;;3.23;3.00;;;22.30;91.30;;;;;;10402381;28;20202;-78
2022/06/11 07:50:00;;;;;;;3.53;3.23;;;22.80;90.40;;;;;;10401984;28;20217;-80
2022/06/11 07:55:02;;;;;;;2.50;2.40;;;23.40;88.60;;;;;;10426401;28;20584;-81
2022/06/11 08:00:06;;;;;;;4.10;2.60;;;24.00;88.20;;;;;;10415279;28;20245;-81
2022/06/11 08:05:16;;;;;;;3.60;2.87;;;24.60;84.90;;;;;;10410189;28;20198;-81
2022/06/11 08:10:20;;;;;;;3.00;2.80;;;25.30;81.20;;;;;;10415968;28;20218;-82
2022/06/11 08:15:23;;;;;;;3.10;2.83;;;25.80;80.10;;;;;;10413565;28;20198;-82
2022/06/11 08:20:30;;;;;;;3.00;2.80;;;26.40;78.80;;;;;;10412676;28;20198;-82
2022/06/11 08:25:33;;;;;;;3.63;3.10;;;26.90;76.30;;;;;;10409797;28;20289;-82
2022/06/11 08:30:36;;;;;;;2.40;2.30;;;27.40;72.90;;;;;;10415638;28;20254;-82
2022/06/11 08:35:40;;;;;;;2.83;2.63;;;27.90;71.40;;;;;;10409285;28;20209;-82
2022/06/11 08:40:44;;;;;;;3.93;2.70;;;28.20;71.90;;;;;;10411653;28;20198;-81
2022/06/11 08:45:49;;;;;;;3.30;3.10;;;28.50;70.30;;;;;;10414524;28;20697;-79
2022/06/11 08:51:02;;;;;;;4.13;2.60;;;28.90;69.90;;;;;;10417284;28;20596;-81
2022/06/11 08:56:06;;;;;;;2.80;2.60;;;29.30;67.50;;;;;;10421643;28;20220;-78
2022/06/11 09:01:16;;;;;;;3.20;3.00;;;29.50;67.30;;;;;;10409632;28;20200;-78
2022/06/11 09:06:42;;;;;;;2.80;2.70;;;29.80;63.50;;;;;;10408096;28;20225;-77
2022/06/11 09:11:56;;;;;;;3.80;2.50;;;30.10;64.60;;;;;;10413510;28;20232;-78
2022/06/11 09:17:13;;;;;;;3.47;3.10;;;30.40;61.50;;;;;;10412903;28;20308;-78
2022/06/11 09:22:34;;;;;;;2.57;2.37;;;30.50;61.30;;;;;;10415905;28;20611;-77
2022/06/11 09:27:39;;;;;;;6.50;3.80;;;30.50;61.20;;;;;;10410149;28;20268;-78
2022/06/11 09:32:49;;;;;;;2.77;2.57;;;30.90;60.20;;;;;;10411331;28;20267;-78
2022/06/11 09:38:07;;;;;;;2.80;2.30;;;31.60;58.50;;;;;;10406247;28;20228;-77
2022/06/11 09:43:32;;;;;;;3.50;3.20;;;32.20;56.90;;;;;;10413792;28;20288;-77
2022/06/11 09:48:51;;;;;;;2.77;2.67;;;32.60;56.60;;;;;;10413555;28;20227;-77
2022/06/11 09:54:07;;;;;;;4.17;2.83;;;33.20;54.70;;;;;;10415563;28;20233;-79
2022/06/11 09:59:24;;;;;;;2.70;2.60;;;34.30;55.10;;;;;;10419728;28;20244;-79
2022/06/11 10:04:32;;;;;;;2.67;2.50;;;35.10;52.70;;;;;;10410190;28;20653;-80
2022/06/11 10:09:41;;;;;;;3.10;2.20;;;35.20;52.20;;;;;;10407171;28;20249;-77
2022/06/11 10:14:50;;;;;;;2.80;2.60;;;35.40;51.00;;;;;;10412338;28;20201;-77
2022/06/11 10:19:57;;;;;;;5.00;2.40;;;35.90;49.20;;;;;;10408345;28;20225;-77
2022/06/11 10:25:14;;;;;;;2.73;2.53;;;35.20;50.80;;;;;;10409399;28;20293;-78
2022/06/11 10:30:31;;;;;;;3.10;2.90;;;33.80;50.40;;;;;;10410550;28;20217;-77
2022/06/11 10:35:42;;;;;;;2.60;2.40;;;32.20;52.60;;;;;;10405909;28;20685;-76
2022/06/11 10:40:49;;;;;;;2.93;2.63;;;31.00;54.30;;;;;;10413452;28;20682;-79
2022/06/11 10:45:51;;;;;;;3.40;3.20;;;30.10;55.70;;;;;;10417381;28;20222;-78
2022/06/11 10:50:54;;;;;;;3.40;3.20;;;29.40;57.30;;;;;;10409104;28;20244;-79
2022/06/11 10:56:00;;;;;;;3.00;2.70;;;28.80;58.40;;;;;;10410965;28;20245;-79
2022/06/11 11:01:06;;;;;;;3.67;2.80;;;28.20;59.70;;;;;;10411910;28;20746;-80
2022/06/11 11:06:11;;;;;;;2.67;2.57;;;27.80;60.50;;;;;;10406109;28;20727;-78
2022/06/11 11:11:16;;;;;;;2.90;2.80;;;27.30;59.60;;;;;;10408162;28;20291;-79
2022/06/11 11:16:22;;;;;;;3.07;2.87;;;26.80;62.40;;;;;;10406212;28;20654;-78
2022/06/11 11:21:31;;;;;;;3.10;2.90;;;26.50;60.50;;;;;;10409687;28;20589;-79
2022/06/11 11:26:40;;;;;;;3.37;3.07;;;26.20;62.30;;;;;;10414161;28;20729;-81
2022/06/11 11:31:46;;;;;;;3.33;3.03;;;26.10;64.10;;;;;;10411120;28;20312;-80
2022/06/11 11:36:48;;;;;;;2.97;2.77;;;26.00;65.20;;;;;;10411328;28;20240;-81
2022/06/11 11:42:11;;;;;;;2.40;2.30;;;25.80;65.20;;;;;;10413603;28;20194;-81
2022/06/11 11:47:19;;;;;;;5.60;3.93;;;25.60;66.00;;;;;;10414517;28;20285;-81
2022/06/11 11:52:24;;;;;;;3.50;3.30;;;25.60;67.10;;;;;;10416970;28;20222;-81
2022/06/11 11:57:31;;;;;;;3.43;3.20;;;25.70;65.40;;;;;;10411604;28;20298;-81
2022/06/11 12:02:42;;;;;;;3.30;3.00;;;25.70;65.70;;;;;;10410930;28;20202;-80
2022/06/11 12:07:48;;;;;;;5.73;3.20;;;25.60;66.90;;;;;;10404589;28;20681;-81
2022/06/11 12:12:54;;;;;;;3.20;3.00;;;25.60;67.90;;;;;;10413292;28;20248;-80
2022/06/11 12:18:00;;;;;;;3.50;3.07;;;25.50;66.70;;;;;;10412248;28;20221;-79
2022/06/11 12:23:16;;;;;;;4.70;2.87;;;25.40;65.70;;;;;;10407294;28;20720;-77
2022/06/11 12:28:25;;;;;;;3.33;3.13;;;25.40;64.90;;;;;;10411289;28;20228;-78
2022/06/11 12:33:28;;;;;;;2.90;2.70;;;25.40;67.10;;;;;;10419016;28;20244;-77
2022/06/11 12:38:39;;;;;;;2.93;2.70;;;25.40;67.30;;;;;;10419684;28;20221;-77
2022/06/11 12:43:49;;;;;;;3.70;3.40;;;25.40;66.00;;;;;;10421685;28;20639;-77
2022/06/11 12:48:54;;;;;;;4.53;3.90;;;25.40;66.40;;;;;;10417429;28;20300;-77
2022/06/11 12:53:59;;;;;;;3.10;2.90;;;25.40;65.50;;;;;;10413384;28;20697;-77
2022/06/11 12:59:30;;;;;;;3.20;3.00;;;25.40;65.70;;;;;;10419801;28;20236;-78
2022/06/11 13:04:44;;;;;;;3.50;3.20;;;25.40;67.20;;;;;;10413360;28;20222;-77
2022/06/11 13:10:02;;;;;;;3.20;2.90;;;25.30;67.10;;;;;;10409548;28;20223;-78
2022/06/11 13:15:33;;;;;;;4.10;3.40;;;25.20;68.00;;;;;;10418031;28;20201;-79
2022/06/11 13:20:41;;;;;;;2.80;2.60;;;25.20;67.20;;;;;;10418065;28;20229;-78
2022/06/11 13:25:55;;;;;;;3.90;3.60;;;25.20;66.20;;;;;;10414104;28;20636;-78
2022/06/11 13:31:04;;;;;;;3.37;3.03;;;25.20;67.80;;;;;;10415322;28;20275;-78
2022/06/11 13:36:12;;;;;;;2.30;2.20;;;25.20;67.20;;;;;;10415804;28;20744;-78
2022/06/11 13:41:23;;;;;;;3.83;3.13;;;25.20;67.00;;;;;;10410469;28;20210;-79
2022/06/11 13:46:39;;;;;;;2.87;2.70;;;25.30;67.90;;;;;;10412968;28;20226;-78
2022/06/11 13:51:44;;;;;;;2.60;2.50;;;25.30;67.80;;;;;;10403588;28;20224;-79
2022/06/11 13:57:04;;;;;;;3.23;2.83;;;25.40;68.70;;;;;;10410036;28;20679;-79
2022/06/11 14:02:44;;;;;;;3.00;2.80;;;25.50;65.20;;;;;;10409595;28;20552;-78
2022/06/11 14:07:47;;;;;;;2.90;2.80;;;25.70;66.90;;;;;;10414020;28;20286;-78
2022/06/11 14:12:50;;;;;;;3.03;2.80;;;25.70;65.50;;;;;;10412186;28;20260;-78
2022/06/11 14:17:56;;;;;;;3.50;3.30;;;25.70;64.80;;;;;;10413664;28;20736;-79
2022/06/11 14:23:00;;;;;;;3.30;3.00;;;25.60;67.10;;;;;;10401669;28;20237;-77
2022/06/11 14:28:44;;;;;;;3.67;3.30;;;25.50;64.20;;;;;;10408110;28;20236;-77
2022/06/11 14:34:21;;;;;;;3.40;3.20;;;25.40;66.80;;;;;;10410039;28;20496;-77
2022/06/11 14:39:32;;;;;;;2.40;2.30;;;25.30;64.60;;;;;;10318459;28;20785;-77
2022/06/11 14:44:34;;;;;;;3.43;3.23;;;25.30;66.20;;;;;;10395146;28;20213;-78
2022/06/11 14:49:50;;;;;;;3.00;2.80;;;25.20;68.40;;;;;;10406435;28;20222;-78
2022/06/11 14:54:59;;;;;;;3.10;2.90;;;25.10;68.40;;;;;;10407231;28;20217;-78
2022/06/11 15:00:27;;;;;;;3.43;3.23;;;25.00;71.10;;;;;;10408891;28;20224;-78
2022/06/11 15:05:47;;;;;;;3.70;3.40;;;24.90;69.70;;;;;;10400601;28;20297;-78
2022/06/11 15:10:54;;;;;;;3.30;3.10;;;24.90;68.70;;;;;;10410940;28;20225;-78
2022/06/11 15:15:57;;;;;;;3.40;3.20;;;24.90;66.90;;;;;;10405998;28;20249;-78
2022/06/11 15:21:03;;;;;;;3.40;3.10;;;24.90;65.70;;;;;;10405926;28;20273;-78
2022/06/11 15:26:11;;;;;;;3.30;3.10;;;25.00;69.00;;;;;;10408572;28;20226;-77
2022/06/11 15:31:13;;;;;;;2.97;2.70;;;25.10;66.30;;;;;;10410069;28;20539;-78
2022/06/11 15:36:21;;;;;;;3.30;3.03;;;25.20;65.80;;;;;;10405642;28;20218;-81
2022/06/11 15:41:26;;;;;;;3.90;3.47;;;25.30;67.10;;;;;;10406569;28;20198;-78
2022/06/11 15:46:33;;;;;;;3.00;2.80;;;25.30;67.60;;;;;;10405178;28;20312;-77
2022/06/11 15:51:36;;;;;;;3.27;3.00;;;25.20;66.70;;;;;;10406132;28;20606;-78
2022/06/11 15:56:38;;;;;;;3.23;3.03;;;25.20;66.90;;;;;;10409552;28;20283;-78
2022/06/11 16:01:46;;;;;;;2.93;2.70;;;25.30;66.30;;;;;;10403618;28;20662;-78
2022/06/11 16:07:02;;;;;;;3.83;3.53;;;25.30;67.20;;;;;;10400064;28;20217;-78
2022/06/11 16:12:08;;;;;;;3.47;3.10;;;25.30;68.50;;;;;;10398793;28;20235;-78
2022/06/11 16:17:15;;;;;;;2.90;2.70;;;25.30;68.00;;;;;;10407907;28;20271;-78
2022/06/11 16:22:22;;;;;;;4.43;3.27;;;25.20;68.90;;;;;;10409282;28;20205;-79
2022/06/11 16:27:29;;;;;;;3.17;2.80;;;25.10;71.00;;;;;;10405198;28;20217;-78
2022/06/11 16:32:32;;;;;;;3.30;3.00;;;25.10;69.20;;;;;;10407749;28;20241;-78
2022/06/11 16:37:38;;;;;;;3.30;3.00;;;25.10;70.30;;;;;;10406408;28;20316;-79
2022/06/11 16:42:49;;;;;;;3.53;2.80;;;25.10;71.00;;;;;;10394756;28;20201;-78
2022/06/11 16:47:56;;;;;;;3.47;3.17;;;25.10;69.40;;;;;;10407369;28;20224;-78
2022/06/11 16:58:36;;;;;;;2.97;2.77;;;25.10;69.90;;;;;;10403686;28;20218;-79
2022/06/11 17:03:42;;;;;;;3.63;3.33;;;25.00;68.70;;;;;;10414991;28;20217;-80
2022/06/11 17:08:45;;;;;;;3.60;3.00;;;25.00;68.70;;;;;;10412356;28;20324;-80
2022/06/11 17:13:50;;;;;;;3.53;3.23;;;25.00;70.30;;;;;;10413555;28;20225;-80
2022/06/11 17:18:55;;;;;;;2.40;2.30;;;25.00;71.10;;;;;;10412730;28;20258;-80
2022/06/11 17:24:03;;;;;;;2.60;2.50;;;24.90;71.50;;;;;;10420988;28;20213;-80
2022/06/11 17:29:12;;;;;;;3.73;3.23;;;24.80;71.10;;;;;;10421568;28;20230;-80
2022/06/11 17:34:14;;;;;;;3.30;3.10;;;24.70;71.00;;;;;;10420041;28;20218;-80
2022/06/11 17:39:21;;;;;;;3.77;3.17;;;24.70;71.50;;;;;;10410308;28;20241;-80
2022/06/11 17:44:25;;;;;;;4.63;3.30;;;24.60;72.60;;;;;;10418456;28;20193;-79
2022/06/11 17:49:28;;;;;;;4.00;3.37;;;24.50;72.60;;;;;;10419797;28;20230;-80
2022/06/11 17:54:35;;;;;;;4.10;3.77;;;24.50;72.30;;;;;;10422670;28;20640;-79
2022/06/11 17:59:40;;;;;;;3.07;2.87;;;24.50;71.30;;;;;;10415459;28;20250;-80
2022/06/11 18:04:42;;;;;;;5.97;3.00;;;24.50;72.50;;;;;;10409193;28;20209;-79
2022/06/11 18:09:46;;;;;;;3.10;2.90;;;24.50;72.40;;;;;;10419978;28;20221;-78
2022/06/11 18:14:48;;;;;;;3.40;3.10;;;24.40;74.20;;;;;;10422299;28;20550;-78
2022/06/11 18:19:50;;;;;;;4.83;3.07;;;24.30;74.90;;;;;;10425439;28;20226;-80
2022/06/11 18:30:15;;;;;;;3.30;3.03;;;24.10;77.10;;;;;;10414121;28;20225;-77
2022/06/11 18:35:18;;;;;;;3.57;3.27;;;23.90;75.80;;;;;;10412621;28;20222;-76
2022/06/11 18:40:25;;;;;;;3.40;3.17;;;23.90;76.90;;;;;;10413227;28;20225;-79
2022/06/11 18:45:27;;;;;;;4.63;4.27;;;23.80;77.10;;;;;;10414507;28;20197;-78
2022/06/11 18:50:31;;;;;;;4.70;4.40;;;23.70;77.10;;;;;;10410923;28;20198;-79
2022/06/11 18:55:35;;;;;;;6.30;5.70;;;23.70;76.90;;;;;;10409980;28;20246;-78
2022/06/11 19:00:37;;;;;;;5.53;5.13;;;23.70;78.60;;;;;;10412241;28;20213;-79
2022/06/11 19:05:39;;;;;;;5.73;5.20;;;23.60;80.40;;;;;;10410763;28;20232;-79
2022/06/11 19:10:43;;;;;;;5.60;5.17;;;23.60;80.80;;;;;;10410695;28;20202;-76
2022/06/11 19:15:46;;;;;;;5.27;4.83;;;23.50;81.30;;;;;;10405794;28;20381;-76
2022/06/11 19:20:49;;;;;;;5.43;4.80;;;23.40;81.50;;;;;;10407300;28;20217;-78
2022/06/11 19:25:55;;;;;;;4.97;4.67;;;23.30;82.40;;;;;;10408668;28;20215;-77
2022/06/11 19:30:59;;;;;;;4.37;4.07;;;23.10;83.00;;;;;;10409803;28;20209;-78
2022/06/11 19:36:06;;;;;;;4.60;4.20;;;23.00;83.70;;;;;;10408207;28;20230;-77
2022/06/11 19:41:13;;;;;;;6.00;4.20;;;22.90;83.90;;;;;;10405712;28;20574;-78
2022/06/11 19:46:16;;;;;;;5.03;3.97;;;22.70;83.60;;;;;;10405361;28;20256;-78
2022/06/11 19:51:21;;;;;;;4.00;3.53;;;22.60;83.60;;;;;;10406865;28;20206;-77
2022/06/11 19:56:29;;;;;;;10.27;4.37;;;22.50;83.50;;;;;;10407468;28;20232;-78
2022/06/11 20:01:33;;;;;;;4.00;3.70;;;22.30;83.50;;;;;;10410722;28;20197;-78
2022/06/11 20:06:35;;;;;;;4.10;3.90;;;22.20;84.20;;;;;;10400763;28;20297;-78
2022/06/11 20:11:40;;;;;;;4.30;4.00;;;22.10;84.50;;;;;;10405973;28;20296;-78
2022/06/11 20:16:43;;;;;;;4.87;4.03;;;22.10;85.00;;;;;;10405932;28;20321;-77
2022/06/11 20:21:47;;;;;;;4.07;3.77;;;22.00;85.10;;;;;;10407857;28;20748;-76
2022/06/11 20:26:51;;;;;;;4.90;4.43;;;22.00;85.70;;;;;;10404440;28;20222;-76
2022/06/11 20:31:54;;;;;;;3.90;3.70;;;22.00;85.50;;;;;;10403807;28;20214;-78
2022/06/11 20:36:56;;;;;;;6.07;4.30;;;21.80;85.90;;;;;;10397846;28;20617;-77
2022/06/11 20:41:59;;;;;;;5.20;4.00;;;21.80;85.60;;;;;;10405998;28;20565;-77
2022/06/11 20:47:01;;;;;;;4.43;3.70;;;21.80;85.80;;;;;;10413480;28;20312;-79
2022/06/11 20:52:05;;;;;;;4.87;4.50;;;21.70;86.00;;;;;;10416183;28;20206;-78
2022/06/11 20:57:09;;;;;;;4.53;4.07;;;21.60;86.50;;;;;;10417342;28;20221;-77
2022/06/11 21:02:16;;;;;;;3.87;3.57;;;21.60;86.40;;;;;;10417627;28;20566;-78
2022/06/11 21:12:40;;;;;;;3.83;3.50;;;21.50;87.00;;;;;;10421148;28;20268;-77
2022/06/11 21:17:44;;;;;;;4.77;4.47;;;21.40;87.20;;;;;;10396899;28;20242;-79
2022/06/11 21:22:48;;;;;;;3.87;3.67;;;21.40;87.00;;;;;;10403068;28;20627;-79
2022/06/11 21:27:51;;;;;;;4.10;3.80;;;21.30;88.00;;;;;;10417272;28;20218;-78
2022/06/11 21:32:54;;;;;;;4.10;3.80;;;21.30;87.60;;;;;;10418162;28;20245;-79
2022/06/11 21:37:57;;;;;;;5.70;4.60;;;21.20;87.30;;;;;;10414029;28;20249;-79
2022/06/11 21:43:01;;;;;;;4.63;4.33;;;21.20;88.10;;;;;;10419468;28;20639;-79
2022/06/11 21:48:03;;;;;;;4.67;4.33;;;21.10;88.80;;;;;;10415717;28;20214;-78
2022/06/11 21:53:05;;;;;;;4.27;3.97;;;21.10;90.40;;;;;;10403277;28;20214;-79
2022/06/11 21:58:09;;;;;;;3.60;3.40;;;21.10;89.90;;;;;;10418707;28;20555;-79
2022/06/11 22:03:13;;;;;;;4.50;4.10;;;21.00;89.80;;;;;;10420838;28;20197;-77
2022/06/11 22:08:15;;;;;;;4.50;4.20;;;21.00;89.80;;;;;;10417791;28;20294;-79
2022/06/11 22:13:18;;;;;;;8.60;4.10;;;20.90;89.40;;;;;;10414440;28;20217;-79
2022/06/11 22:18:20;;;;;;;4.17;3.87;;;20.80;90.20;;;;;;10415983;28;20261;-79
2022/06/11 22:23:23;;;;;;;4.37;4.17;;;20.80;90.50;;;;;;10408196;28;20201;-76
2022/06/11 22:28:26;;;;;;;4.53;4.23;;;20.80;90.40;;;;;;10417054;28;20648;-77
2022/06/11 22:33:29;;;;;;;4.60;4.30;;;20.70;90.50;;;;;;10397890;28;20232;-77
2022/06/11 22:38:31;;;;;;;5.07;4.67;;;20.70;90.70;;;;;;10409381;28;20222;-78
2022/06/11 22:43:34;;;;;;;6.83;4.70;;;20.60;90.50;;;;;;10414084;28;20719;-77
2022/06/11 22:48:37;;;;;;;4.27;3.97;;;20.50;90.40;;;;;;10414956;28;20218;-78
2022/06/11 22:53:41;;;;;;;4.90;4.60;;;20.50;91.10;;;;;;10416362;28;20628;-78
2022/06/11 22:58:46;;;;;;;5.20;4.50;;;20.50;91.10;;;;;;10412085;28;20263;-78
2022/06/11 23:03:49;;;;;;;4.20;3.90;;;20.40;91.60;;;;;;10412875;28;20225;-79
2022/06/11 23:08:51;;;;;;;4.50;4.13;;;20.40;91.80;;;;;;10406654;28;20257;-77
2022/06/11 23:13:56;;;;;;;4.70;4.40;;;20.30;91.50;;;;;;10397060;28;20241;-78
2022/06/11 23:18:58;;;;;;;6.23;4.50;;;20.30;91.50;;;;;;10414580;28;20255;-76
2022/06/11 23:24:03;;;;;;;4.87;4.47;;;20.20;91.50;;;;;;10410061;28;20267;-78
2022/06/11 23:29:07;;;;;;;5.37;4.90;;;20.20;92.00;;;;;;10399383;28;20252;-79
2022/06/11 23:34:09;;;;;;;4.47;4.10;;;20.10;92.00;;;;;;10412250;28;20209;-78
2022/06/11 23:39:11;;;;;;;5.10;4.70;;;20.10;92.00;;;;;;10414284;28;20229;-78
2022/06/11 23:44:15;;;;;;;5.13;4.40;;;20.10;92.10;;;;;;10398401;28;20684;-79
2022/06/11 23:49:17;;;;;;;5.20;4.80;;;20.00;92.50;;;;;;10409940;28;20217;-78
2022/06/11 23:54:19;;;;;;;4.80;4.50;;;20.00;92.50;;;;;;10410668;28;20218;-78
2022/06/11 23:59:23;;;;;;;5.37;4.50;;;20.00;92.30;;;;;;10411327;28;20333;-78
